Time;durP1;ratioP1;P1;durP2;ratioP2;P2;SDS_P1;SDS_P2;PMS_P1;PMS_P2;Temp;Humidity;BMP_temperature;BMP_pressure;BME280_temperature;BME280_humidity;BME280_pressure;Samples;Min_cycle;Max_cycle;Signal;HPM_P1;HPM_P2
2021/10/19 00:04:37;;;;;;;3.27;2.00;;;18.50;71.60;;;;;;10494947;28;20223;-63
2021/10/19 00:09:59;;;;;;;2.93;1.90;;;18.50;71.60;;;;;;10493342;28;20214;-62
2021/10/19 00:15:22;;;;;;;2.30;2.10;;;18.50;71.50;;;;;;10489860;28;20204;-63
2021/10/19 00:20:45;;;;;;;2.10;1.90;;;18.50;71.40;;;;;;10493333;28;20279;-61
2021/10/19 00:26:07;;;;;;;2.53;2.20;;;18.60;71.50;;;;;;10486418;28;20208;-61
2021/10/19 00:31:29;;;;;;;2.27;2.03;;;18.50;71.40;;;;;;10493268;28;20220;-64
2021/10/19 00:36:54;;;;;;;2.17;1.97;;;18.50;71.50;;;;;;10493592;28;20664;-61
2021/10/19 00:42:16;;;;;;;2.60;2.17;;;18.50;71.50;;;;;;10474392;28;20236;-63
2021/10/19 00:47:46;;;;;;;3.20;2.57;;;18.50;71.50;;;;;;10476325;28;20223;-63
2021/10/19 00:53:09;;;;;;;3.17;2.40;;;18.50;71.60;;;;;;10493735;28;20216;-62
2021/10/19 00:58:31;;;;;;;2.40;2.20;;;18.50;71.70;;;;;;10493855;28;20196;-61
2021/10/19 01:03:53;;;;;;;2.60;2.40;;;18.50;71.70;;;;;;10493724;28;20215;-64
2021/10/19 01:09:17;;;;;;;2.67;2.03;;;18.50;71.60;;;;;;10491657;28;20216;-62
2021/10/19 01:14:39;;;;;;;2.60;2.40;;;18.50;71.50;;;;;;10492883;28;20227;-63
2021/10/19 01:20:03;;;;;;;2.73;2.30;;;18.50;71.50;;;;;;10478489;28;20208;-61
2021/10/19 01:25:28;;;;;;;2.67;2.27;;;18.50;71.50;;;;;;10495620;28;20572;-63
2021/10/19 01:30:51;;;;;;;2.17;2.00;;;18.50;71.50;;;;;;10491949;28;20689;-63
2021/10/19 01:36:14;;;;;;;3.23;2.87;;;18.50;71.50;;;;;;10500535;28;20184;-62
2021/10/19 01:41:36;;;;;;;3.53;2.90;;;18.50;71.60;;;;;;10496941;28;20216;-62
2021/10/19 01:46:59;;;;;;;3.10;2.70;;;18.50;71.60;;;;;;10500069;28;20564;-63
2021/10/19 01:52:23;;;;;;;2.83;2.63;;;18.50;71.50;;;;;;10500352;28;20220;-60
2021/10/19 01:57:45;;;;;;;2.33;2.13;;;18.50;71.50;;;;;;10500075;28;20188;-63
2021/10/19 02:03:08;;;;;;;3.00;2.70;;;18.50;71.50;;;;;;10498445;28;20216;-59
2021/10/19 02:08:31;;;;;;;2.67;2.27;;;18.50;71.50;;;;;;10498813;28;20216;-63
2021/10/19 02:13:53;;;;;;;3.33;2.60;;;18.50;71.60;;;;;;10493352;28;20217;-61
2021/10/19 02:19:15;;;;;;;2.80;2.53;;;18.50;71.60;;;;;;10498769;28;20192;-61
2021/10/19 02:24:39;;;;;;;3.07;2.77;;;18.50;71.60;;;;;;10498363;28;20223;-61
2021/10/19 02:30:01;;;;;;;3.83;2.70;;;18.40;71.60;;;;;;10497215;28;20196;-63
2021/10/19 02:35:23;;;;;;;2.80;2.50;;;18.40;71.70;;;;;;10497510;28;20215;-62
2021/10/19 02:40:47;;;;;;;3.47;3.00;;;18.40;71.70;;;;;;10497170;28;20208;-63
2021/10/19 02:46:09;;;;;;;3.80;2.83;;;18.50;71.70;;;;;;10497252;28;20221;-56
2021/10/19 02:51:31;;;;;;;3.53;2.90;;;18.50;71.60;;;;;;10495389;28;20213;-62
2021/10/19 02:56:55;;;;;;;3.40;2.83;;;18.40;71.50;;;;;;10497226;28;20188;-62
2021/10/19 03:02:17;;;;;;;2.67;2.47;;;18.50;71.60;;;;;;10495188;28;20216;-62
2021/10/19 03:07:39;;;;;;;3.30;3.00;;;18.40;71.60;;;;;;10496564;28;20212;-64
2021/10/19 03:13:02;;;;;;;3.20;2.90;;;18.40;71.60;;;;;;10495622;28;20223;-62
2021/10/19 03:18:24;;;;;;;2.93;2.40;;;18.40;72.00;;;;;;10494884;28;20185;-61
2021/10/19 03:23:47;;;;;;;3.70;3.30;;;18.40;71.70;;;;;;10488649;28;20228;-60
2021/10/19 03:29:10;;;;;;;3.60;3.30;;;18.40;71.80;;;;;;10495123;28;20235;-62
2021/10/19 03:34:32;;;;;;;3.87;3.13;;;18.40;71.80;;;;;;10494870;28;20223;-61
2021/10/19 03:39:54;;;;;;;3.07;2.87;;;18.40;71.80;;;;;;10489074;28;20204;-61
2021/10/19 03:45:18;;;;;;;3.10;2.80;;;18.40;71.70;;;;;;10513579;22;20227;-64
2021/10/19 03:50:40;;;;;;;3.00;2.80;;;18.50;71.60;;;;;;10481531;28;20199;-63
2021/10/19 03:56:03;;;;;;;3.10;2.80;;;18.60;71.60;;;;;;10495094;28;20215;-63
2021/10/19 04:01:26;;;;;;;3.10;2.80;;;18.50;71.40;;;;;;10460620;28;20686;-63
2021/10/19 04:06:49;;;;;;;3.00;2.80;;;18.60;71.40;;;;;;10486542;28;20228;-63
2021/10/19 04:12:11;;;;;;;3.70;3.00;;;18.60;71.40;;;;;;10455371;28;20407;-62
2021/10/19 04:17:34;;;;;;;3.63;2.83;;;18.60;71.40;;;;;;10483716;28;20199;-63
2021/10/19 04:22:56;;;;;;;4.03;3.30;;;18.60;71.40;;;;;;10491986;28;20615;-63
2021/10/19 04:28:18;;;;;;;3.43;3.00;;;18.60;71.50;;;;;;10461879;28;20604;-63
2021/10/19 04:33:42;;;;;;;3.50;3.20;;;18.60;71.40;;;;;;10453317;28;20588;-66
2021/10/19 04:39:04;;;;;;;3.87;3.17;;;18.60;71.40;;;;;;10472082;28;20200;-63
2021/10/19 04:44:26;;;;;;;3.63;3.03;;;18.60;71.40;;;;;;10469850;28;20220;-63
2021/10/19 04:49:49;;;;;;;3.50;2.93;;;18.60;71.30;;;;;;10472666;28;20204;-62
2021/10/19 04:55:12;;;;;;;3.07;2.83;;;18.60;71.40;;;;;;10466782;28;20239;-63
2021/10/19 05:00:34;;;;;;;3.40;3.10;;;18.60;71.40;;;;;;10467544;28;20193;-64
2021/10/19 05:05:57;;;;;;;3.60;3.23;;;18.60;71.40;;;;;;10454744;28;20631;-64
2021/10/19 05:11:19;;;;;;;3.03;2.73;;;18.60;71.40;;;;;;10465894;28;20219;-63
2021/10/19 05:16:41;;;;;;;3.00;2.73;;;18.60;71.30;;;;;;10474766;28;20200;-63
2021/10/19 05:22:05;;;;;;;3.37;2.97;;;18.70;71.40;;;;;;10458732;28;20699;-65
2021/10/19 05:27:27;;;;;;;3.40;2.97;;;18.70;71.40;;;;;;10492128;28;20208;-65
2021/10/19 05:32:49;;;;;;;4.37;3.37;;;18.60;71.40;;;;;;10489758;28;20212;-63
2021/10/19 05:38:13;;;;;;;3.33;3.03;;;18.60;71.40;;;;;;10469310;28;20212;-63
2021/10/19 05:43:35;;;;;;;3.13;2.83;;;18.70;71.40;;;;;;10485619;28;20228;-63
2021/10/19 05:48:57;;;;;;;3.20;2.90;;;18.60;71.40;;;;;;10457202;28;20235;-65
2021/10/19 05:54:21;;;;;;;3.80;3.17;;;18.70;71.50;;;;;;10457236;28;20346;-65
2021/10/19 05:59:43;;;;;;;3.03;2.73;;;18.70;71.50;;;;;;10451177;28;20201;-63
2021/10/19 06:05:05;;;;;;;3.30;3.00;;;18.60;71.50;;;;;;10460288;28;20235;-64
2021/10/19 06:10:30;;;;;;;3.40;3.00;;;18.60;71.50;;;;;;10489316;28;20220;-63
2021/10/19 06:15:53;;;;;;;3.00;2.80;;;18.60;71.50;;;;;;10493925;28;20295;-63
2021/10/19 06:21:16;;;;;;;3.30;3.00;;;18.60;71.50;;;;;;10457365;28;20688;-65
2021/10/19 06:26:39;;;;;;;3.07;2.77;;;18.60;71.50;;;;;;10476698;28;20220;-65
2021/10/19 06:32:01;;;;;;;3.60;3.30;;;18.60;71.50;;;;;;10495253;28;20209;-63
2021/10/19 06:37:24;;;;;;;4.03;3.17;;;18.70;71.50;;;;;;10495818;28;20200;-63
2021/10/19 06:42:47;;;;;;;3.50;3.20;;;18.60;71.50;;;;;;10474499;28;20232;-63
2021/10/19 06:48:09;;;;;;;4.27;3.47;;;18.70;71.60;;;;;;10464882;28;20212;-63
2021/10/19 06:53:31;;;;;;;3.87;3.43;;;18.60;71.90;;;;;;10477877;28;20216;-63
2021/10/19 06:58:55;;;;;;;5.80;3.80;;;18.70;71.80;;;;;;10496607;28;20200;-66
2021/10/19 07:04:17;;;;;;;4.40;4.00;;;18.70;71.80;;;;;;10482438;28;20691;-64
2021/10/19 07:09:39;;;;;;;3.77;3.40;;;18.70;71.90;;;;;;10472042;28;20710;-64
2021/10/19 07:15:02;;;;;;;3.47;3.17;;;18.60;72.00;;;;;;10469441;28;20591;-64
2021/10/19 07:20:24;;;;;;;3.97;3.40;;;18.60;71.90;;;;;;10469113;28;20212;-64
2021/10/19 07:25:47;;;;;;;4.77;3.43;;;18.60;72.00;;;;;;10469077;28;20247;-63
2021/10/19 07:31:11;;;;;;;3.80;3.50;;;18.70;72.00;;;;;;10471420;28;20568;-65
2021/10/19 07:36:33;;;;;;;4.60;3.40;;;18.60;72.10;;;;;;10484545;28;20196;-62
2021/10/19 07:41:55;;;;;;;4.13;3.53;;;18.60;72.20;;;;;;10465760;28;20256;-63
2021/10/19 07:47:18;;;;;;;3.50;3.20;;;18.60;72.20;;;;;;10484537;28;20231;-63
2021/10/19 07:52:42;;;;;;;4.37;3.80;;;18.70;71.90;;;;;;10470615;28;20231;-63
2021/10/19 07:58:04;;;;;;;3.83;3.20;;;18.70;71.80;;;;;;10482917;28;20197;-64
2021/10/19 08:03:29;;;;;;;3.97;3.30;;;18.70;71.70;;;;;;10459313;28;20217;-63
2021/10/19 08:08:51;;;;;;;3.73;3.30;;;18.70;71.60;;;;;;10472604;28;20224;-70
2021/10/19 08:14:14;;;;;;;3.97;3.57;;;18.70;71.80;;;;;;10488022;28;20232;-67
2021/10/19 08:19:37;;;;;;;4.40;3.37;;;18.70;71.70;;;;;;10469720;28;20200;-70
2021/10/19 08:25:03;;;;;;;5.90;4.13;;;18.70;71.70;;;;;;10479697;28;20510;-68
2021/10/19 08:30:25;;;;;;;3.90;3.47;;;18.90;71.50;;;;;;10487917;28;20223;-68
2021/10/19 08:35:49;;;;;;;3.20;2.90;;;18.80;71.50;;;;;;10479304;28;20219;-68
2021/10/19 08:41:12;;;;;;;3.50;3.20;;;18.80;72.30;;;;;;10480809;28;20204;-69
2021/10/19 08:46:34;;;;;;;3.67;3.30;;;18.80;71.90;;;;;;10485623;28;20224;-69
2021/10/19 08:51:57;;;;;;;3.83;3.40;;;18.70;71.90;;;;;;10485064;28;20235;-70
2021/10/19 08:57:19;;;;;;;3.77;3.33;;;18.70;72.10;;;;;;10479748;28;20201;-68
2021/10/19 09:02:43;;;;;;;3.23;2.77;;;18.70;72.00;;;;;;10469241;28;20223;-70
2021/10/19 09:08:11;;;;;;;3.03;2.77;;;18.70;72.00;;;;;;10483561;28;20627;-69
2021/10/19 09:13:34;;;;;;;3.30;3.00;;;18.80;72.00;;;;;;10477461;28;20730;-70
2021/10/19 09:19:00;;;;;;;3.60;3.10;;;18.70;72.00;;;;;;10486238;28;20207;-69
2021/10/19 09:24:26;;;;;;;4.37;2.97;;;18.70;72.00;;;;;;10489634;28;20710;-68
2021/10/19 09:29:50;;;;;;;4.00;3.00;;;18.80;72.10;;;;;;10482431;28;20217;-69
2021/10/19 09:35:21;;;;;;;3.83;2.80;;;18.80;72.20;;;;;;10477065;28;20220;-68
2021/10/19 09:40:46;;;;;;;3.50;3.20;;;18.80;72.20;;;;;;10476013;28;20549;-68
2021/10/19 09:46:08;;;;;;;3.13;2.80;;;18.70;72.20;;;;;;10436892;22;20246;-66
2021/10/19 09:51:36;;;;;;;3.20;2.90;;;18.80;72.30;;;;;;10385533;28;20222;-66
2021/10/19 09:57:00;;;;;;;3.60;3.13;;;18.80;72.30;;;;;;10461587;28;20728;-67
2021/10/19 10:02:22;;;;;;;4.13;3.27;;;18.70;72.30;;;;;;10446633;28;20227;-67
2021/10/19 10:07:48;;;;;;;3.50;3.00;;;18.80;72.40;;;;;;10483415;28;20215;-66
2021/10/19 10:13:16;;;;;;;3.43;3.13;;;18.70;72.40;;;;;;10525669;28;20208;-66
2021/10/19 10:18:38;;;;;;;3.83;3.03;;;18.70;72.40;;;;;;10332227;28;20216;-65
2021/10/19 10:24:03;;;;;;;2.80;2.60;;;18.80;72.40;;;;;;10466013;28;20208;-66
2021/10/19 10:29:38;;;;;;;3.30;2.90;;;18.80;72.50;;;;;;10445552;28;20747;-66
2021/10/19 10:35:05;;;;;;;2.93;2.63;;;18.70;72.30;;;;;;10509278;28;20218;-66
2021/10/19 10:40:29;;;;;;;3.17;2.70;;;18.70;72.50;;;;;;10336004;28;20223;-67
2021/10/19 10:46:05;;;;;;;4.40;2.93;;;18.70;72.50;;;;;;10321998;28;20218;-65
2021/10/19 10:51:29;;;;;;;3.50;2.70;;;18.70;72.40;;;;;;10326475;28;20231;-64
2021/10/19 10:56:53;;;;;;;3.00;2.70;;;18.70;72.50;;;;;;10324469;28;20203;-65
2021/10/19 11:02:16;;;;;;;2.90;2.60;;;18.70;72.50;;;;;;10387687;28;20231;-63
2021/10/19 11:07:38;;;;;;;2.63;2.43;;;18.70;72.60;;;;;;10442003;28;20219;-64
2021/10/19 11:13:02;;;;;;;3.13;2.70;;;18.70;72.50;;;;;;10443830;28;20199;-65
2021/10/19 11:18:27;;;;;;;3.57;3.10;;;18.70;72.90;;;;;;10474930;28;20707;-65
2021/10/19 11:23:50;;;;;;;2.87;2.67;;;18.70;73.20;;;;;;10340936;28;20195;-65
2021/10/19 11:29:12;;;;;;;2.80;2.60;;;18.80;73.20;;;;;;10340871;28;20227;-64
2021/10/19 11:34:36;;;;;;;3.10;2.80;;;18.70;73.20;;;;;;10386127;28;20204;-65
2021/10/19 11:40:06;;;;;;;3.03;2.73;;;18.80;73.00;;;;;;10304463;28;20219;-65
2021/10/19 11:45:29;;;;;;;3.00;2.70;;;18.80;72.90;;;;;;10498944;28;20911;-65
2021/10/19 11:50:54;;;;;;;3.00;2.53;;;18.80;72.90;;;;;;10398134;28;20232;-65
2021/10/19 11:56:17;;;;;;;3.10;2.80;;;18.80;72.90;;;;;;10316238;28;20713;-65
2021/10/19 12:01:41;;;;;;;3.83;3.00;;;18.80;72.90;;;;;;10392418;28;20215;-64
2021/10/19 12:07:05;;;;;;;3.10;2.70;;;18.70;73.20;;;;;;10355938;28;20196;-64
2021/10/19 12:12:27;;;;;;;3.00;2.80;;;18.80;73.20;;;;;;10317768;28;20221;-64
2021/10/19 12:17:57;;;;;;;3.07;2.60;;;18.80;73.10;;;;;;10298478;28;20199;-69
2021/10/19 12:23:21;;;;;;;10.25;8.45;;;18.80;73.10;;;;;;10305893;28;20424;-66
2021/10/19 12:28:48;;;;;;;330.57;75.43;;;19.70;71.00;;;;;;10309783;28;20219;-66
2021/10/19 12:34:11;;;;;;;53.83;23.80;;;19.50;71.60;;;;;;10318457;28;20203;-67
2021/10/19 12:39:43;;;;;;;41.95;22.17;;;19.40;72.30;;;;;;10330458;28;20510;-64
2021/10/19 12:45:05;;;;;;;48.20;22.13;;;19.90;70.90;;;;;;10432280;28;20218;-67
2021/10/19 12:50:29;;;;;;;32.03;15.17;;;19.60;71.10;;;;;;10463761;28;20254;-67
2021/10/19 12:55:52;;;;;;;52.43;23.60;;;19.40;71.70;;;;;;10526667;28;20211;-66
2021/10/19 13:01:15;;;;;;;41.77;17.83;;;19.30;72.10;;;;;;10433209;28;20223;-67
2021/10/19 13:06:38;;;;;;;41.00;17.87;;;19.10;72.60;;;;;;10397891;28;20203;-68
2021/10/19 13:12:01;;;;;;;30.87;15.50;;;19.10;72.80;;;;;;10530759;28;20219;-66
2021/10/19 13:17:23;;;;;;;42.13;17.83;;;19.00;72.90;;;;;;10386864;28;20255;-66
2021/10/19 13:22:46;;;;;;;32.73;14.40;;;18.90;73.00;;;;;;10343593;28;20537;-66
2021/10/19 13:28:11;;;;;;;23.90;12.70;;;18.90;73.10;;;;;;10306457;28;20219;-65
2021/10/19 13:33:33;;;;;;;15.83;9.00;;;18.90;73.20;;;;;;10313952;28;20656;-65
2021/10/19 13:38:55;;;;;;;22.17;11.27;;;18.90;73.30;;;;;;10330897;28;20698;-65
2021/10/19 13:44:20;;;;;;;20.43;10.87;;;18.90;73.30;;;;;;10326933;28;20286;-66
2021/10/19 13:49:42;;;;;;;20.27;10.67;;;18.90;73.30;;;;;;10368981;28;20235;-65
2021/10/19 13:55:05;;;;;;;15.20;9.10;;;18.90;73.30;;;;;;10403283;28;20195;-65
2021/10/19 14:00:29;;;;;;;17.23;8.83;;;18.90;73.40;;;;;;10486195;28;20211;-65
2021/10/19 14:05:52;;;;;;;16.53;8.80;;;18.90;73.60;;;;;;10395085;28;20226;-65
2021/10/19 14:11:14;;;;;;;15.97;7.63;;;18.80;73.50;;;;;;10421516;28;20596;-65
2021/10/19 14:16:38;;;;;;;13.47;7.63;;;18.80;73.60;;;;;;10367355;28;20204;-65
2021/10/19 14:22:01;;;;;;;14.47;7.60;;;18.80;73.80;;;;;;10292554;28;20837;-65
2021/10/19 14:27:23;;;;;;;11.40;6.67;;;18.80;73.80;;;;;;10285836;28;20191;-65
2021/10/19 14:32:47;;;;;;;14.17;7.37;;;18.80;73.70;;;;;;10301694;28;20203;-65
2021/10/19 14:38:09;;;;;;;11.20;6.30;;;18.90;73.80;;;;;;10326991;28;20214;-65
2021/10/19 14:43:32;;;;;;;12.23;6.10;;;18.80;73.70;;;;;;10327053;28;20682;-65
2021/10/19 14:48:56;;;;;;;11.73;6.10;;;18.80;73.80;;;;;;10326299;28;20596;-65
2021/10/19 14:54:18;;;;;;;10.43;5.90;;;18.80;73.80;;;;;;10327158;28;20207;-65
2021/10/19 14:59:41;;;;;;;11.17;5.90;;;18.80;73.90;;;;;;10327036;28;20401;-65
2021/10/19 15:05:05;;;;;;;13.03;6.30;;;18.80;73.90;;;;;;10325934;28;20202;-65
2021/10/19 15:10:28;;;;;;;8.63;5.70;;;18.80;73.90;;;;;;10325229;28;20226;-65
2021/10/19 15:15:50;;;;;;;9.43;5.50;;;18.80;74.00;;;;;;10338230;28;20573;-65
2021/10/19 15:21:14;;;;;;;9.50;4.93;;;18.80;74.00;;;;;;10325001;28;20220;-64
2021/10/19 15:26:37;;;;;;;7.40;4.83;;;18.80;74.00;;;;;;10337950;28;20621;-64
2021/10/19 15:31:59;;;;;;;8.10;4.63;;;18.80;74.00;;;;;;10324676;28;20223;-66
2021/10/19 15:37:23;;;;;;;8.83;4.80;;;18.80;74.00;;;;;;10324697;28;20196;-66
2021/10/19 15:42:45;;;;;;;8.17;4.90;;;18.80;74.00;;;;;;10319199;28;20200;-64
2021/10/19 15:48:10;;;;;;;11.07;5.23;;;18.80;74.10;;;;;;10455699;22;20232;-67
2021/10/19 15:53:34;;;;;;;7.82;4.95;;;18.80;74.10;;;;;;10485022;28;20922;-67
2021/10/19 15:58:56;;;;;;;7.10;4.80;;;19.40;71.50;;;;;;10494354;28;20247;-67
2021/10/19 16:04:18;;;;;;;7.80;3.87;;;19.10;72.80;;;;;;10493687;28;20214;-67
2021/10/19 16:09:41;;;;;;;5.17;3.40;;;18.90;73.40;;;;;;10494039;28;20216;-67
2021/10/19 16:15:04;;;;;;;5.33;3.40;;;18.90;73.70;;;;;;10494498;28;20587;-69
2021/10/19 16:20:27;;;;;;;7.13;4.00;;;18.80;73.90;;;;;;10452732;28;20266;-67
2021/10/19 16:25:51;;;;;;;6.13;3.57;;;18.80;74.10;;;;;;10459627;28;20220;-67
2021/10/19 16:31:14;;;;;;;5.10;3.20;;;18.80;74.10;;;;;;10469299;28;20595;-67
2021/10/19 16:36:39;;;;;;;8.03;3.40;;;18.80;74.20;;;;;;10494471;28;20229;-67
2021/10/19 16:42:06;;;;;;;5.67;3.60;;;18.80;74.30;;;;;;10494430;28;20602;-69
2021/10/19 16:47:28;;;;;;;4.93;3.30;;;18.80;74.30;;;;;;10480458;28;20748;-67
2021/10/19 16:52:50;;;;;;;6.57;3.87;;;18.80;74.30;;;;;;10452181;28;20189;-68
2021/10/19 16:58:13;;;;;;;5.47;3.17;;;18.80;74.30;;;;;;10451710;28;20213;-69
2021/10/19 17:03:36;;;;;;;5.10;3.23;;;18.80;74.40;;;;;;10452808;28;20197;-68
2021/10/19 17:08:58;;;;;;;4.80;3.17;;;18.80;74.40;;;;;;10452988;28;20719;-64
2021/10/19 17:14:21;;;;;;;3.43;2.80;;;18.80;74.40;;;;;;10464959;28;20208;-66
2021/10/19 17:19:43;;;;;;;3.17;2.40;;;18.80;74.40;;;;;;10483898;28;20188;-67
2021/10/19 17:25:06;;;;;;;4.77;2.67;;;18.80;74.40;;;;;;10493632;28;20227;-69
2021/10/19 17:30:30;;;;;;;5.30;2.90;;;18.80;74.50;;;;;;10492151;28;20553;-66
2021/10/19 17:35:52;;;;;;;4.90;2.50;;;18.80;74.50;;;;;;10493096;28;20216;-66
2021/10/19 17:41:14;;;;;;;4.27;2.67;;;18.80;74.50;;;;;;10492710;28;20651;-66
2021/10/19 17:46:38;;;;;;;4.27;2.60;;;18.80;74.50;;;;;;10483420;28;20221;-66
2021/10/19 17:52:00;;;;;;;3.47;2.43;;;18.80;74.60;;;;;;10465156;28;20224;-66
2021/10/19 17:57:22;;;;;;;3.30;2.33;;;18.80;74.60;;;;;;10480027;28;20223;-67
2021/10/19 18:02:46;;;;;;;3.67;2.57;;;18.80;74.60;;;;;;10482633;28;20189;-66
2021/10/19 18:08:09;;;;;;;3.10;2.20;;;18.80;74.60;;;;;;10475617;28;20327;-67
2021/10/19 18:13:31;;;;;;;2.40;2.20;;;18.80;74.70;;;;;;10490740;28;20204;-66
2021/10/19 18:18:55;;;;;;;3.50;2.20;;;18.70;74.60;;;;;;10488796;28;20215;-68
2021/10/19 18:24:18;;;;;;;3.10;2.40;;;18.80;74.70;;;;;;10493158;28;20200;-68
2021/10/19 18:29:40;;;;;;;2.43;2.20;;;18.80;74.70;;;;;;10493321;28;20244;-67
2021/10/19 18:35:05;;;;;;;5.17;2.53;;;18.80;74.70;;;;;;10492019;28;20208;-68
2021/10/19 18:40:28;;;;;;;2.30;1.83;;;18.80;74.70;;;;;;10466477;28;20193;-66
2021/10/19 18:45:50;;;;;;;2.20;1.90;;;18.80;74.70;;;;;;10491394;28;20305;-67
2021/10/19 18:51:13;;;;;;;2.70;2.40;;;18.80;74.70;;;;;;10482822;28;20575;-67
2021/10/19 18:56:36;;;;;;;3.33;2.30;;;18.80;74.80;;;;;;10481891;28;20220;-67
2021/10/19 19:01:58;;;;;;;2.70;1.80;;;18.80;74.80;;;;;;10481350;28;20281;-68
2021/10/19 19:07:21;;;;;;;2.93;2.40;;;18.80;74.80;;;;;;10479996;28;20224;-69
2021/10/19 19:12:44;;;;;;;2.70;2.00;;;18.80;74.80;;;;;;10480279;28;20223;-66
2021/10/19 19:18:06;;;;;;;3.50;2.10;;;18.80;74.90;;;;;;10486215;28;20218;-67
2021/10/19 19:23:29;;;;;;;2.73;1.93;;;18.80;74.80;;;;;;10480808;28;20228;-67
2021/10/19 19:28:52;;;;;;;3.87;2.10;;;18.80;74.90;;;;;;10486481;28;20216;-66
2021/10/19 19:34:14;;;;;;;4.07;2.13;;;18.80;74.90;;;;;;10486262;28;20572;-66
2021/10/19 19:39:38;;;;;;;2.27;1.73;;;18.80;74.90;;;;;;10494757;28;20693;-66
2021/10/19 19:45:01;;;;;;;3.27;2.20;;;18.80;74.90;;;;;;10479443;28;20346;-66
2021/10/19 19:50:25;;;;;;;2.23;1.90;;;18.80;74.90;;;;;;10466938;28;20283;-67
2021/10/19 19:55:55;;;;;;;2.13;1.73;;;18.80;74.90;;;;;;10471615;28;20227;-66
2021/10/19 20:01:17;;;;;;;2.20;1.80;;;18.80;75.00;;;;;;10495429;28;20242;-68
2021/10/19 20:06:39;;;;;;;2.13;1.77;;;18.80;75.00;;;;;;10491003;28;20221;-69
2021/10/19 20:12:03;;;;;;;2.80;1.83;;;18.80;75.00;;;;;;10485736;28;20219;-67
2021/10/19 20:17:25;;;;;;;1.97;1.60;;;18.80;75.00;;;;;;10493175;28;20223;-66
2021/10/19 20:22:47;;;;;;;2.00;1.70;;;18.80;75.00;;;;;;10492901;28;20689;-67
2021/10/19 20:28:11;;;;;;;2.90;1.70;;;18.80;75.00;;;;;;10465534;28;20222;-66
2021/10/19 20:33:33;;;;;;;2.13;1.40;;;18.80;75.10;;;;;;10491011;28;20192;-67
2021/10/19 20:38:56;;;;;;;1.87;1.60;;;18.80;75.10;;;;;;10494310;28;20231;-67
2021/10/19 20:44:19;;;;;;;3.40;2.13;;;18.80;75.20;;;;;;10466658;28;20226;-67
2021/10/19 20:49:41;;;;;;;3.20;2.30;;;18.80;75.20;;;;;;10484885;28;20216;-66
2021/10/19 20:55:05;;;;;;;1.73;1.63;;;18.80;75.20;;;;;;10492442;28;20216;-67
2021/10/19 21:00:29;;;;;;;2.20;1.90;;;18.80;75.30;;;;;;10492565;28;20656;-66
2021/10/19 21:05:52;;;;;;;2.47;1.83;;;18.80;75.40;;;;;;10459659;28;20692;-67
2021/10/19 21:11:14;;;;;;;2.53;1.70;;;18.70;75.40;;;;;;10464215;28;20216;-67
2021/10/19 21:16:37;;;;;;;1.77;1.63;;;18.70;75.40;;;;;;10487839;28;20212;-67
2021/10/19 21:22:00;;;;;;;1.60;1.50;;;18.70;75.50;;;;;;10478297;28;20194;-64
2021/10/19 21:27:22;;;;;;;2.17;1.77;;;18.70;75.60;;;;;;10485866;28;20209;-66
2021/10/19 21:32:46;;;;;;;2.63;2.10;;;18.70;75.60;;;;;;10478742;28;20216;-66
2021/10/19 21:38:08;;;;;;;3.30;2.20;;;18.70;75.70;;;;;;10491959;28;20212;-66
2021/10/19 21:43:30;;;;;;;2.07;1.93;;;18.70;75.70;;;;;;10495463;28;20575;-67
2021/10/19 21:48:54;;;;;;;2.47;2.27;;;18.70;75.80;;;;;;10542994;22;20235;-69
2021/10/19 21:54:16;;;;;;;2.60;1.93;;;18.60;75.80;;;;;;10534326;28;20191;-70
2021/10/19 21:59:38;;;;;;;2.20;1.90;;;18.60;75.80;;;;;;10540447;28;20211;-70
2021/10/19 22:05:01;;;;;;;2.73;2.03;;;18.60;75.90;;;;;;10503931;28;20192;-68
2021/10/19 22:10:24;;;;;;;1.77;1.67;;;18.60;75.90;;;;;;10499049;28;20216;-70
2021/10/19 22:15:46;;;;;;;2.10;2.00;;;18.60;75.90;;;;;;10512270;28;20212;-70
2021/10/19 22:21:10;;;;;;;2.53;2.10;;;18.60;76.00;;;;;;10539715;28;20199;-69
2021/10/19 22:26:32;;;;;;;2.37;2.17;;;18.60;76.10;;;;;;10536634;28;20219;-70
2021/10/19 22:31:54;;;;;;;2.30;2.10;;;18.60;76.10;;;;;;10539696;28;20286;-69
2021/10/19 22:37:17;;;;;;;2.30;2.10;;;18.60;76.10;;;;;;10539815;28;20230;-70
2021/10/19 22:42:40;;;;;;;2.47;2.07;;;18.60;76.10;;;;;;10530906;28;20203;-70
2021/10/19 22:48:02;;;;;;;2.17;1.97;;;18.60;76.20;;;;;;10520571;28;20231;-69
2021/10/19 22:53:26;;;;;;;2.13;2.00;;;18.50;76.10;;;;;;10496192;28;20220;-67
2021/10/19 22:58:48;;;;;;;2.60;2.20;;;18.50;76.20;;;;;;10497286;28;20589;-69
2021/10/19 23:04:10;;;;;;;2.70;2.00;;;18.50;76.20;;;;;;10522879;28;20207;-68
2021/10/19 23:09:34;;;;;;;2.20;2.00;;;18.50;76.20;;;;;;10539015;28;20598;-70
2021/10/19 23:14:56;;;;;;;2.53;2.33;;;18.50;76.20;;;;;;10538330;28;20203;-69
2021/10/19 23:20:18;;;;;;;2.20;2.00;;;18.50;76.20;;;;;;10537281;28;20594;-69
2021/10/19 23:25:41;;;;;;;2.20;2.00;;;18.50;76.30;;;;;;10497336;28;20207;-70
2021/10/19 23:31:03;;;;;;;2.20;2.00;;;18.50;76.30;;;;;;10516044;28;20212;-70
2021/10/19 23:36:26;;;;;;;2.97;2.20;;;18.50;76.30;;;;;;10497250;28;20750;-70
2021/10/19 23:41:49;;;;;;;2.13;1.93;;;18.50;76.30;;;;;;10494841;28;20192;-69
2021/10/19 23:47:12;;;;;;;1.87;1.77;;;18.50;76.40;;;;;;10505614;28;20224;-70
2021/10/19 23:52:34;;;;;;;2.50;2.10;;;18.50;76.40;;;;;;10497690;28;20701;-69
2021/10/19 23:57:57;;;;;;;2.37;2.13;;;18.50;77.00;;;;;;10495244;28;20227;-70
